• Join FlightAware (Why Join?)
  • Login
  • US Flag 
07:00AM EST


 

Airport Tracker/Info


-or-


 

Live Flight TrackerFlight Track Log ✈ AAY805 ✈ 08-Jun-2014 ✈ KCHA - KPIE

Flight Track Log - Related Links

Times and Time Zones

All times are in EDT time to prevent confusion due to time zone crossing. See the AAY805 flight status page for this flight to view local times or setup timezone preferences in your user account.

Time Position Orientation Groundspeed Altitude Reporting Facility
EDT Latitude Longitude Course Direction KTS MPH feet Rate Location/Type
02:18PM 34.9347 -85.1967 155° Southeast 240 276 4,300  Level Atlanta Center
02:19PM 34.8703 -85.1603 155° Southeast 251 289 6,700 2,400 Climbing Atlanta Center
02:20PM 34.7933 -85.1136 154° Southeast 279 321 9,100 1,980 Climbing Atlanta Center
02:21PM 34.7125 -85.0672 155° Southeast 305 351 10,700 1,740 Climbing Atlanta Center
02:22PM 34.6189 -85.0131 155° Southeast 342 394 12,600 2,100 Climbing Atlanta Center
02:23PM 34.5256 -84.9564 153° Southeast 368 423 14,900 1,200 Climbing Atlanta Center
02:24PM 34.4278 -84.9025 156° South 380 437 15,100 60 Climbing Atlanta Center
02:25PM 34.3322 -84.8411 152° Southeast 385 443 15,100  Level Atlanta Center
02:26PM 34.2492 -84.7525 139° Southeast 385 443 15,100 960 Level Atlanta Center
02:27PM 34.1664 -84.6664 139° Southeast 390 449 17,100 1,740 Climbing Atlanta Center
02:28PM 34.0581 -84.6206 161° South 390 449 18,600 1,800 Climbing Atlanta Center
02:29PM 33.9497 -84.5722 160° South 402 463 20,800 1,980 Climbing Atlanta Center
02:30PM 33.8392 -84.5289 162° South 419 482 22,600 1,500 Climbing Atlanta Center
02:31PM 33.7244 -84.4808 161° South 426 490 23,900 1,500 Climbing Atlanta Center
02:32PM 33.6078 -84.4403 164° South 437 503 25,600 1,080 Climbing Atlanta Center
02:33PM 33.4994 -84.4325 177° South 437 503 26,100 180 Climbing Atlanta Center
02:34PM 33.3783 -84.4319 180° South 437 503 26,000 300 Descending Atlanta Center
02:35PM 33.2572 -84.4289 179° South 437 503 26,800 960 Climbing Atlanta Center
02:36PM 33.1319 -84.4283 180° South 442 509 28,000 1,200 Climbing Atlanta Center
02:37PM 33.0047 -84.4228 178° South 448 516 29,200 1,080 Climbing Atlanta Center
02:38PM 32.8772 -84.4222 180° South 458 527 30,200 1,080 Climbing Atlanta Center
02:39PM 32.7353 -84.4192 179° South 458 527 31,400 1,320 Climbing Atlanta Center
02:40PM 32.6081 -84.4161 179° South 458 527 32,900 1,440 Climbing Atlanta Center
02:41PM 32.4808 -84.4156 180° South 458 527 34,300 1,020 Climbing Atlanta Center
02:42PM 32.3575 -84.4125 179° South 458 527 35,000 600 Climbing Atlanta Center
02:44PM 32.1303 -84.4061 179° South 446 513 36,100 720 Climbing Jacksonville Center
02:45PM 32.0156 -84.4044 179° South 441 507 37,100 480 Climbing Jacksonville Center
02:46PM 31.8944 -84.4022 179° South 441 507 37,100 -60 Level Jacksonville Center
02:47PM 31.7733 -84.4003 179° South 441 507 37,000  Descending Jacksonville Center
02:48PM 31.6503 -84.3983 179° South 441 507 37,100  Climbing Jacksonville Center
02:49PM 31.5269 -84.3989 180° South 441 507 37,100  Level Jacksonville Center
02:50PM 31.4039 -84.3944 178° South 441 507 37,100 -60 Level Jacksonville Center
02:51PM 31.2828 -84.3925 179° South 441 507 37,000 -60 Descending Jacksonville Center
02:52PM 31.1597 -84.3906 179° South 441 507 37,000  Level Jacksonville Center
02:53PM 31.0364 -84.3886 179° South 441 507 37,100  Climbing Jacksonville Center
02:54PM 30.9133 -84.3867 179° South 441 507 37,000 -60 Descending Jacksonville Center
02:55PM 30.7903 -84.3797 177° South 441 507 37,000  Level Jacksonville Center
02:56PM 30.6672 -84.3731 177° South 441 507 37,000  Level Jacksonville Center
02:57PM 30.5483 -84.3664 177° South 441 507 37,000  Level Jacksonville Center
02:58PM 30.4253 -84.3525 174° South 441 507 37,000  Level Jacksonville Center
02:59PM 30.3089 -84.2931 156° South 436 502 37,000 -360 Level Jacksonville Center
03:00PM 30.1928 -84.2144 150° Southeast 436 502 36,300 -900 Descending Jacksonville Center
03:01PM 30.0872 -84.1386 148° Southeast 436 502 35,300 -960 Descending Jacksonville Center
03:02PM 29.9856 -84.0628 147° Southeast 441 507 34,400 -960 Descending Jacksonville Center
03:03PM 29.8797 -83.9872 148° Southeast 441 507 33,400 -1,020 Descending Jacksonville Center
03:04PM 29.7761 -83.9094 147° Southeast 446 513 32,400 -1,020 Descending Jacksonville Center
03:05PM 29.6700 -83.8319 148° Southeast 451 519 31,400 -1,020 Descending Jacksonville Center
03:06PM 29.5664 -83.7594 149° Southeast 451 519 30,400 -960 Descending Jacksonville Center
03:07PM 29.4625 -83.6844 148° Southeast 451 519 29,500 -960 Descending Jacksonville Center
03:08PM 29.3606 -83.6097 147° Southeast 451 519 28,500 -960 Descending Jacksonville Center
03:09PM 29.2586 -83.5378 148° Southeast 446 513 27,600 -1,260 Descending Jacksonville Center
03:10PM 29.1589 -83.4681 149° Southeast 441 507 26,000 -1,680 Descending Jacksonville Center
03:11PM 29.0589 -83.4081 152° Southeast 418 481 24,300 -1,800 Descending Jacksonville Center
03:12PM 28.9672 -83.3506 151° Southeast 412 474 22,500 -1,800 Descending Jacksonville Center
03:13PM 28.8694 -83.2861 150° Southeast 412 474 20,800 -1,740 Descending Jacksonville Center
03:15PM 28.7000 -83.1833 152° Southeast 394 453 18,000 -1,680 Descending Tampa TRACON
03:16PM 28.6167 -83.1333 152° Southeast 379 436 16,500 -1,500 Descending Tampa TRACON
03:16PM 28.5692 -83.0956 145° Southeast 378 435 15,600 -1,620 Descending Miami Center
03:17PM 28.4636 -83.0297 151° Southeast 372 428 13,800 -1,380 Descending Miami Center
03:19PM 28.3500 -82.9667 154° Southeast 333 383 12,200 -1,320 Descending Tampa TRACON
03:19PM 28.2931 -82.9403 158° South 332 382 11,100 -1,920 Descending Miami Center
03:20PM 28.2139 -82.9044 158° South 311 358 9,000 -2,100 Descending Miami Center
03:21PM 28.1406 -82.8686 157° South 294 338 6,800 -2,340 Descending Miami Center
03:22PM 28.0542 -82.8253 156° South 288 331 4,200 -1,320 Descending Miami Center
03:24PM 27.9264 -82.7608 156° South 254 292 2,700 -600 Descending Miami Center
03:26PM 27.8753 -82.7467 166° South 226 260 2,400 -540 Descending Miami Center
03:27PM 27.8264 -82.7331 166° South 208 239 1,700 -600 Descending Miami Center
03:28PM 27.8394 -82.6886 72° East 169 194 1,200 -600 Descending Miami Center
03:29PM 27.8833 -82.6833 North 137 158 500 -780 Descending Tampa TRACON
03:29PM 27.8833 -82.6833 North 150 173 400 -1,200 Descending Miami Center